createdAt,value
2022-12-27T00:01:13.653Z,101537.75
2022-12-27T00:11:19.023Z,101552.38
2022-12-27T00:21:23.886Z,101553.00
2022-12-27T00:31:29.382Z,101557.34
2022-12-27T00:41:34.174Z,101554.47
2022-12-27T00:51:37.941Z,101559.88
2022-12-27T01:01:42.564Z,101571.00
2022-12-27T01:11:45.759Z,101567.72
2022-12-27T01:21:50.649Z,101571.97
2022-12-27T01:31:54.368Z,101562.72
2022-12-27T01:42:16.446Z,101579.69
2022-12-27T01:52:19.568Z,101576.25
2022-12-27T02:02:24.035Z,101589.91
2022-12-27T02:12:28.535Z,101604.50
2022-12-27T02:23:17.955Z,101617.09
2022-12-27T02:33:28.119Z,101614.56
2022-12-27T02:43:50.392Z,101622.38
2022-12-27T02:54:07.283Z,101624.97
2022-12-27T03:04:24.931Z,101613.84
2022-12-27T03:14:54.439Z,101626.69
2022-12-27T03:25:16.483Z,101636.91
2022-12-27T03:35:24.401Z,101648.69
2022-12-27T03:45:47.902Z,101640.22
2022-12-27T03:55:52.538Z,101651.25
2022-12-27T04:05:55.573Z,101667.47
2022-12-27T04:16:17.437Z,101660.59
2022-12-27T04:26:38.158Z,101665.75
2022-12-27T04:36:42.920Z,101662.41
2022-12-27T04:47:03.280Z,101659.13
2022-12-27T04:57:07.793Z,101664.94
2022-12-27T05:07:28.861Z,101661.09
2022-12-27T05:17:33.049Z,101656.91
2022-12-27T05:27:36.094Z,101667.78
2022-12-27T05:37:40.421Z,101673.63
2022-12-27T05:47:44.448Z,101676.25
2022-12-27T05:57:49.000Z,101686.56
2022-12-27T06:07:52.066Z,101681.38
2022-12-27T06:17:57.082Z,101694.13
2022-12-27T06:28:00.468Z,101696.44
2022-12-27T06:38:04.952Z,101717.06
2022-12-27T06:48:08.188Z,101724.63
2022-12-27T06:58:13.010Z,101731.41
2022-12-27T07:08:16.361Z,101742.47
2022-12-27T07:18:21.082Z,101762.75
2022-12-27T07:28:24.109Z,101773.91
2022-12-27T07:38:28.624Z,101783.84
2022-12-27T07:48:31.607Z,101800.97
2022-12-27T07:58:39.201Z,101809.44
2022-12-27T08:08:44.856Z,101811.13
2022-12-27T08:18:49.871Z,101809.50
2022-12-27T08:28:53.483Z,101803.50
2022-12-27T08:38:58.013Z,101807.94
2022-12-27T08:49:01.013Z,101812.28
2022-12-27T08:59:05.416Z,101812.63
2022-12-27T09:09:08.764Z,101825.59
2022-12-27T09:19:12.856Z,101834.44
2022-12-27T09:29:15.916Z,101833.25
2022-12-27T09:39:20.309Z,101831.09
2022-12-27T09:49:31.255Z,101840.22
2022-12-27T09:59:40.652Z,101830.75
2022-12-27T10:09:55.096Z,101837.63
2022-12-27T10:20:10.607Z,101816.25
2022-12-27T10:30:16.315Z,101815.59
2022-12-27T10:40:27.632Z,101813.09
2022-12-27T10:50:33.070Z,101819.25
2022-12-27T11:00:38.131Z,101809.75
2022-12-27T11:10:41.324Z,101817.63
2022-12-27T11:20:50.329Z,101818.84
2022-12-27T11:30:57.525Z,101824.97
2022-12-27T11:41:06.101Z,101828.22
2022-12-27T11:51:31.910Z,101835.78
2022-12-27T12:02:16.846Z,101825.66
2022-12-27T12:12:46.550Z,101818.13
2022-12-27T12:23:06.872Z,101805.28
2022-12-27T12:33:31.780Z,101795.97
2022-12-27T12:43:59.646Z,101775.47
2022-12-27T12:54:13.401Z,101769.50
2022-12-27T13:04:45.512Z,101750.75
2022-12-27T13:15:05.039Z,101751.66
2022-12-27T13:25:20.405Z,101740.66
2022-12-27T13:35:34.896Z,101740.53
2022-12-27T13:45:52.666Z,101722.50
2022-12-27T13:56:14.879Z,101721.66
2022-12-27T14:07:03.183Z,101717.41
2022-12-27T14:17:22.229Z,101707.97
2022-12-27T14:27:53.675Z,101707.00
2022-12-27T14:38:24.607Z,101709.47
2022-12-27T14:49:00.079Z,101715.38
2022-12-27T14:59:17.311Z,101714.53
2022-12-27T15:09:32.954Z,101707.63
2022-12-27T15:19:55.815Z,101702.50
2022-12-27T15:30:12.409Z,101706.03
2022-12-27T15:40:35.647Z,101713.53
2022-12-27T15:50:49.271Z,101704.91
2022-12-27T16:01:26.072Z,101692.81
2022-12-27T16:12:01.251Z,101682.56
2022-12-27T16:22:04.577Z,101675.56
2022-12-27T16:32:19.012Z,101671.22
2022-12-27T16:42:35.072Z,101661.66
2022-12-27T16:53:02.241Z,101659.91
2022-12-27T17:03:42.725Z,101668.34
2022-12-27T17:13:52.174Z,101662.31
2022-12-27T17:23:58.507Z,101674.19
2022-12-27T17:34:11.340Z,101660.38
2022-12-27T17:44:41.461Z,101638.19
2022-12-27T17:55:03.879Z,101627.09
2022-12-27T18:05:13.408Z,101638.97
2022-12-27T18:15:19.235Z,101644.91
2022-12-27T18:25:25.535Z,101632.13
2022-12-27T18:35:30.975Z,101621.03
2022-12-27T18:45:34.921Z,101591.16
2022-12-27T18:55:57.958Z,101585.94
2022-12-27T19:06:05.148Z,101562.91
2022-12-27T19:16:21.675Z,101548.38
2022-12-27T19:26:29.869Z,101539.75
2022-12-27T19:36:40.897Z,101518.47
2022-12-27T19:46:44.111Z,101496.38
2022-12-27T19:56:49.793Z,101494.66
2022-12-27T20:06:54.630Z,101483.66
2022-12-27T20:16:59.894Z,101486.09
2022-12-27T20:27:03.117Z,101492.91
2022-12-27T20:37:07.410Z,101484.34
2022-12-27T20:47:10.365Z,101468.28
2022-12-27T20:57:15.170Z,101457.16
2022-12-27T21:07:18.402Z,101452.13
2022-12-27T21:17:22.871Z,101433.31
2022-12-27T21:27:26.267Z,101420.59
2022-12-27T21:37:30.809Z,101429.97
2022-12-27T21:47:34.081Z,101401.81
2022-12-27T21:57:39.172Z,101382.22
2022-12-27T22:07:42.823Z,101364.41
2022-12-27T22:17:49.119Z,101355.06
2022-12-27T22:27:52.555Z,101349.97
2022-12-27T22:37:57.176Z,101352.53
2022-12-27T22:48:00.429Z,101329.53
2022-12-27T22:58:04.899Z,101302.31
2022-12-27T23:08:08.064Z,101289.53
2022-12-27T23:18:12.771Z,101259.72
2022-12-27T23:28:15.933Z,101245.25
2022-12-27T23:38:20.131Z,101228.19
2022-12-27T23:48:23.113Z,101188.19
2022-12-27T23:58:27.692Z,101154.94
